Time;durP1;ratioP1;P1;durP2;ratioP2;P2;SDS_P1;SDS_P2;PMS_P1;PMS_P2;Temp;Humidity;BMP_temperature;BMP_pressure;BME280_temperature;BME280_humidity;BME280_pressure;Samples;Min_cycle;Max_cycle;Signal;HPM_P1;HPM_P2
2022/06/04 00:00:54;;;;;;;21.08;10.43;;;;;;;22.38;62.99;99741.22;5031969;28;20381;-76
2022/06/04 00:03:21;;;;;;;13.45;9.48;;;;;;;22.09;63.45;99729.06;5033003;28;20036;-76
2022/06/04 00:05:51;;;;;;;14.65;11.25;;;;;;;20.99;68.33;99730.91;5033107;28;20030;-76
2022/06/04 00:08:17;;;;;;;13.43;11.00;;;;;;;21.12;68.19;99734.22;5031761;28;20117;-75
2022/06/04 00:16:19;;;;;;;12.02;9.68;;;;;;;21.18;68.06;99720.41;5032054;28;20138;-76
2022/06/04 00:18:44;;;;;;;15.05;10.38;;;;;;;20.90;69.53;99714.22;5032254;28;20023;-75
2022/06/04 00:21:11;;;;;;;17.70;10.65;;;;;;;21.26;68.10;99715.56;5032583;28;20021;-76
2022/06/04 00:23:37;;;;;;;14.45;9.80;;;;;;;20.79;70.43;99707.66;5032647;28;20021;-75
2022/06/04 00:26:06;;;;;;;12.45;10.02;;;;;;;21.13;68.93;99710.25;5031362;28;20030;-76
2022/06/04 00:28:32;;;;;;;16.00;9.45;;;;;;;21.38;67.97;99714.34;5031602;28;20554;-76
2022/06/04 00:30:57;;;;;;;17.80;10.57;;;;;;;20.81;70.33;99712.91;5031235;28;20068;-75
2022/06/04 00:33:23;;;;;;;12.75;10.55;;;;;;;20.77;70.53;99710.88;5032231;28;20061;-76
2022/06/04 00:35:52;;;;;;;13.77;10.57;;;;;;;20.72;70.89;99714.13;5032171;28;20053;-76
2022/06/04 00:38:21;;;;;;;18.73;10.65;;;;;;;20.43;72.07;99716.78;5030520;28;20033;-76
2022/06/04 00:41:07;;;;;;;15.50;12.48;;;;;;;19.77;75.08;99721.16;5031405;28;20014;-76
2022/06/04 00:43:58;;;;;;;23.13;13.55;;;;;;;19.60;75.40;99714.09;5031115;28;20060;-76
2022/06/04 00:46:41;;;;;;;20.13;14.18;;;;;;;19.08;78.44;99711.16;5032057;28;20029;-75
2022/06/04 00:49:16;;;;;;;16.75;12.48;;;;;;;19.20;76.48;99699.56;5032207;28;20145;-76
2022/06/04 00:51:45;;;;;;;17.13;12.73;;;;;;;19.28;75.53;99696.78;5030564;28;20034;-76
2022/06/04 00:54:10;;;;;;;20.10;11.80;;;;;;;19.21;75.45;99698.34;5031467;28;20087;-76
2022/06/04 00:56:48;;;;;;;20.67;12.18;;;;;;;19.13;75.99;99699.47;5031055;28;20419;-75
2022/06/04 00:59:13;;;;;;;15.75;12.13;;;;;;;18.99;76.96;99688.75;5031936;28;20033;-76
2022/06/04 01:01:58;;;;;;;20.67;12.32;;;;;;;18.93;76.86;99679.75;5029209;28;20032;-76
2022/06/04 01:04:49;;;;;;;18.00;11.88;;;;;;;19.25;76.02;99692.72;5029912;28;20029;-76
2022/06/04 01:07:53;;;;;;;16.45;11.68;;;;;;;19.21;76.48;99692.69;5029795;28;20041;-76
2022/06/04 01:11:01;;;;;;;25.05;12.82;;;;;;;19.05;77.55;99686.41;5031818;28;20037;-76
2022/06/04 01:13:55;;;;;;;14.52;11.95;;;;;;;18.93;78.20;99682.59;4993297;28;20042;-76
2022/06/04 01:16:32;;;;;;;18.45;12.15;;;;;;;19.00;77.27;99686.75;5031142;28;20031;-76
2022/06/04 01:19:02;;;;;;;15.77;11.73;;;;;;;18.99;76.50;99683.06;5031695;28;20030;-75
2022/06/04 01:21:51;;;;;;;14.23;11.35;;;;;;;18.84;76.76;99690.63;5029460;28;20061;-76
2022/06/04 01:24:28;;;;;;;14.75;11.50;;;;;;;18.76;76.90;99689.72;5026139;28;20038;-76
2022/06/04 01:27:17;;;;;;;16.08;12.55;;;;;;;18.62;77.33;99686.69;5030489;28;20028;-75
2022/06/04 01:30:07;;;;;;;15.20;11.23;;;;;;;18.36;78.11;99692.03;5031671;28;20018;-75
2022/06/04 01:32:40;;;;;;;14.93;11.60;;;;;;;18.49;77.98;99680.47;5030732;28;20090;-76
2022/06/04 01:35:15;;;;;;;16.60;11.93;;;;;;;18.54;77.56;99679.31;5031264;28;20094;-76
2022/06/04 01:37:48;;;;;;;17.23;11.43;;;;;;;18.73;76.95;99679.13;5030264;28;20037;-76
2022/06/04 01:41:19;;;;;;;18.77;11.20;;;;;;;18.85;75.92;99674.41;5031502;28;20025;-76
2022/06/04 01:43:15;;;;;;;17.75;11.85;;;;;;;18.80;76.69;99664.22;5010294;28;20049;-76
2022/06/04 01:45:43;;;;;;;17.77;11.75;;;;;;;18.84;76.37;99661.44;5011711;28;20028;-76
2022/06/04 01:48:11;;;;;;;21.40;12.65;;;;;;;18.62;77.38;99658.34;5012578;28;20025;-76
2022/06/04 01:50:47;;;;;;;15.10;11.55;;;;;;;18.58;77.13;99660.34;5016599;28;20029;-76
2022/06/04 01:53:16;;;;;;;16.52;12.23;;;;;;;18.60;77.19;99664.41;5035621;28;20443;-76
2022/06/04 01:55:58;;;;;;;20.23;11.43;;;;;;;18.67;76.47;99667.31;5035280;28;20025;-74
2022/06/04 01:58:37;;;;;;;17.02;12.10;;;;;;;18.74;76.21;99672.25;5034233;28;20555;-76
2022/06/04 02:01:08;;;;;;;17.00;12.35;;;;;;;18.57;77.02;99670.03;5034293;28;20074;-76
2022/06/04 02:04:06;;;;;;;16.80;12.20;;;;;;;18.67;76.69;99667.31;5035519;28;20025;-76
2022/06/04 02:06:43;;;;;;;18.17;12.38;;;;;;;18.82;75.74;99667.50;5032531;28;20021;-76
2022/06/04 02:09:17;;;;;;;15.43;11.38;;;;;;;19.06;74.84;99673.88;5033670;28;20057;-76
2022/06/04 02:11:53;;;;;;;18.40;11.98;;;;;;;19.26;73.82;99671.66;5033758;28;20112;-76
2022/06/04 02:14:19;;;;;;;25.88;11.27;;;;;;;18.92;75.16;99686.63;5032844;28;20079;-80
2022/06/04 02:16:57;;;;;;;16.35;12.43;;;;;;;18.57;76.76;99682.16;5034149;28;20013;-75
2022/06/04 02:19:23;;;;;;;17.67;11.40;;;;;;;18.51;76.79;99680.88;5034076;28;20044;-77
2022/06/04 02:21:48;;;;;;;21.65;12.35;;;;;;;18.54;76.15;99687.81;5034227;28;20491;-73
2022/06/04 02:24:14;;;;;;;17.30;12.75;;;;;;;18.58;75.99;99686.66;5022614;28;20022;-79
2022/06/04 02:26:43;;;;;;;22.80;11.60;;;;;;;18.65;75.61;99700.88;5016277;28;20087;-75
2022/06/04 02:29:09;;;;;;;40.92;15.15;;;;;;;18.75;75.03;99695.75;5034901;28;20029;-76
2022/06/04 02:31:54;;;;;;;13.63;11.55;;;;;;;18.76;74.83;99698.22;5032578;28;20026;-78
2022/06/04 02:34:45;;;;;;;18.88;10.73;;;;;;;18.84;74.42;99696.28;5034717;28;20083;-76
2022/06/04 02:37:30;;;;;;;19.92;11.82;;;;;;;18.90;74.04;99691.88;5034838;28;20091;-76
2022/06/04 02:40:09;;;;;;;15.68;12.20;;;;;;;18.63;74.94;99714.63;5027346;28;20038;-77
2022/06/04 02:42:46;;;;;;;22.00;10.85;;;;;;;18.54;75.56;99716.13;5033535;28;20029;-77
2022/06/04 02:45:14;;;;;;;19.23;12.38;;;;;;;18.56;75.33;99722.22;5034851;28;20037;-71
2022/06/04 02:47:59;;;;;;;21.25;12.02;;;;;;;18.79;74.43;99722.09;5032972;28;20025;-70
2022/06/04 02:50:35;;;;;;;13.80;11.07;;;;;;;19.25;72.66;99728.75;5033236;28;20038;-71
2022/06/04 02:53:03;;;;;;;12.68;11.02;;;;;;;19.21;72.50;99725.88;5028532;28;20033;-72
2022/06/04 02:55:34;;;;;;;20.00;12.50;;;;;;;18.77;74.64;99724.50;5033677;28;20038;-72
2022/06/04 02:58:05;;;;;;;34.35;12.30;;;;;;;18.91;74.08;99724.69;5032672;28;20488;-71
2022/06/04 03:00:32;;;;;;;26.15;11.55;;;;;;;19.06;73.27;99724.88;5032068;28;20036;-72
2022/06/04 03:02:57;;;;;;;21.10;12.13;;;;;;;19.05;73.26;99723.25;5033857;28;20030;-72
2022/06/04 03:05:26;;;;;;;27.05;11.30;;;;;;;19.11;73.22;99732.22;5031449;28;20396;-72
2022/06/04 03:07:57;;;;;;;23.92;11.30;;;;;;;19.29;72.38;99727.59;5033112;28;20030;-70
2022/06/04 03:10:27;;;;;;;25.33;11.60;;;;;;;19.29;72.16;99733.25;5022089;28;20496;-70
2022/06/04 03:12:53;;;;;;;23.42;11.27;;;;;;;19.09;73.00;99738.31;5033689;28;20021;-71
2022/06/04 03:15:19;;;;;;;15.13;11.73;;;;;;;18.56;75.07;99736.38;5031609;28;20039;-71
2022/06/04 03:17:47;;;;;;;27.50;12.88;;;;;;;18.49;75.27;99735.06;5032055;28;20017;-71
2022/06/04 03:20:16;;;;;;;16.35;11.68;;;;;;;18.51;75.22;99746.81;5032464;28;20036;-71
2022/06/04 03:22:42;;;;;;;18.88;12.00;;;;;;;18.68;74.56;99744.63;5032754;28;20022;-71
2022/06/04 03:25:08;;;;;;;22.08;11.30;;;;;;;18.90;73.34;99742.91;5033958;28;20040;-71
2022/06/04 03:27:33;;;;;;;18.80;11.50;;;;;;;18.93;73.35;99739.28;5019459;28;20093;-71
2022/06/04 03:29:59;;;;;;;34.83;11.88;;;;;;;19.01;73.00;99736.56;5032193;28;20022;-72
2022/06/04 03:32:24;;;;;;;17.60;10.48;;;;;;;18.93;72.97;99732.81;5031989;28;20104;-72
2022/06/04 03:34:50;;;;;;;20.48;11.98;;;;;;;19.03;73.01;99743.50;5031907;28;20049;-71
2022/06/04 03:37:16;;;;;;;22.17;12.18;;;;;;;19.08;72.83;99745.97;5029075;28;20500;-72
2022/06/04 03:39:42;;;;;;;20.55;11.32;;;;;;;19.09;72.89;99741.13;5027913;28;20029;-71
2022/06/04 03:42:08;;;;;;;20.20;11.25;;;;;;;19.17;72.63;99748.50;5029377;28;20075;-72
2022/06/04 03:44:33;;;;;;;19.23;11.05;;;;;;;19.27;72.33;99732.00;5029885;28;20022;-71
2022/06/04 03:46:59;;;;;;;19.63;11.93;;;;;;;19.41;71.92;99743.50;5031417;28;20110;-71
2022/06/04 03:49:25;;;;;;;17.85;11.20;;;;;;;19.26;72.50;99738.88;5033471;28;20022;-71
2022/06/04 03:51:51;;;;;;;28.42;14.40;;;;;;;19.37;72.13;99739.81;5031387;28;20059;-71
2022/06/04 03:54:16;;;;;;;74.43;40.55;;;;;;;19.29;72.02;99733.25;5033220;28;20453;-71
2022/06/04 03:56:42;;;;;;;361.02;193.60;;;;;;;19.08;72.90;99740.31;5031854;28;20116;-72
2022/06/04 03:59:07;;;;;;;141.05;72.95;;;;;;;19.07;73.39;99738.69;5022840;28;20041;-72
2022/06/04 04:01:33;;;;;;;52.00;28.40;;;;;;;19.05;73.62;99735.41;5041233;28;20083;-73
2022/06/04 04:04:00;;;;;;;30.40;18.75;;;;;;;19.14;73.68;99743.63;5027347;28;20036;-72
2022/06/04 04:06:30;;;;;;;29.45;16.13;;;;;;;19.34;73.33;99743.44;5029562;28;20033;-72
2022/06/04 04:08:56;;;;;;;27.40;16.13;;;;;;;19.39;73.04;99739.44;5031767;28;20104;-72
2022/06/04 04:11:25;;;;;;;27.67;11.63;;;;;;;19.41;72.81;99740.66;5030484;28;20026;-72
2022/06/04 04:13:52;;;;;;;40.15;11.23;;;;;;;19.39;73.19;99745.13;5031432;28;20018;-72
2022/06/04 04:16:18;;;;;;;28.38;14.40;;;;;;;19.40;73.18;99741.88;5032696;28;20026;-72
2022/06/04 04:18:44;;;;;;;47.95;19.90;;;;;;;19.65;73.20;99738.47;5032607;28;20392;-72
2022/06/04 04:21:15;;;;;;;34.15;17.38;;;;;;;19.76;72.77;99739.38;5028360;28;20032;-72
2022/06/04 04:23:41;;;;;;;22.23;13.38;;;;;;;19.94;71.52;99738.78;5032291;28;20579;-72
2022/06/04 04:26:09;;;;;;;23.63;13.23;;;;;;;20.17;70.75;99740.56;5032529;28;20037;-72
2022/06/04 04:28:36;;;;;;;18.95;12.30;;;;;;;20.39;69.52;99741.53;5029845;28;20476;-72
2022/06/04 04:31:02;;;;;;;30.90;11.23;;;;;;;20.62;68.38;99738.41;5020449;28;20128;-72
2022/06/04 04:33:28;;;;;;;20.92;11.52;;;;;;;20.69;67.86;99733.97;5030061;28;20036;-72
2022/06/04 04:35:53;;;;;;;19.98;10.15;;;;;;;20.75;66.64;99736.03;5028080;28;20049;-72
2022/06/04 04:38:21;;;;;;;12.57;9.57;;;;;;;20.86;66.09;99741.78;5030313;28;20033;-72
2022/06/04 04:40:48;;;;;;;15.68;10.50;;;;;;;21.07;65.66;99736.63;5026615;28;20447;-72
2022/06/04 04:43:13;;;;;;;20.13;9.65;;;;;;;21.07;65.81;99740.25;5029033;28;20052;-72
2022/06/04 04:45:39;;;;;;;17.15;9.95;;;;;;;21.09;65.75;99746.38;5030203;28;20480;-72
2022/06/04 04:48:05;;;;;;;17.17;11.75;;;;;;;20.88;65.86;99730.88;5030152;28;20025;-72
2022/06/04 04:50:38;;;;;;;14.48;9.77;;;;;;;20.88;66.35;99733.72;5017974;28;20036;-72
2022/06/04 04:53:07;;;;;;;21.25;11.10;;;;;;;21.03;65.56;99739.44;5027444;28;20403;-72
2022/06/04 04:55:33;;;;;;;12.33;10.20;;;;;;;21.00;66.16;99738.22;5030580;28;20507;-72
2022/06/04 04:58:00;;;;;;;15.25;11.13;;;;;;;21.15;66.29;99750.47;5027871;28;20029;-72
2022/06/04 05:00:26;;;;;;;15.82;11.45;;;;;;;21.24;66.31;99752.13;5029468;28;20079;-72
2022/06/04 05:02:51;;;;;;;12.32;11.02;;;;;;;21.25;65.93;99746.00;5027937;28;20018;-71
2022/06/04 05:05:17;;;;;;;20.48;10.88;;;;;;;21.36;65.55;99746.06;5028617;28;20466;-70
2022/06/04 05:07:44;;;;;;;19.08;11.68;;;;;;;21.53;65.38;99737.97;5030509;28;20048;-69
2022/06/04 05:10:10;;;;;;;23.00;12.63;;;;;;;21.46;65.32;99744.44;5030636;28;20048;-69
2022/06/04 05:12:36;;;;;;;18.30;10.82;;;;;;;21.70;64.80;99750.63;5028118;28;20468;-71
2022/06/04 05:15:02;;;;;;;20.48;10.95;;;;;;;21.71;65.08;99752.25;5026222;28;20120;-70
2022/06/04 05:17:28;;;;;;;17.48;11.27;;;;;;;21.86;64.64;99762.41;5030071;28;20025;-72
2022/06/04 05:19:53;;;;;;;13.32;11.38;;;;;;;21.84;65.14;99764.84;5029904;28;20495;-71
2022/06/04 05:22:19;;;;;;;14.90;11.82;;;;;;;22.11;64.74;99770.16;5014078;28;20083;-72
2022/06/04 05:24:45;;;;;;;17.33;10.68;;;;;;;22.18;63.89;99766.47;5009643;28;20112;-72
2022/06/04 05:27:10;;;;;;;12.68;10.38;;;;;;;22.24;63.16;99764.03;5011397;28;20509;-72
2022/06/04 05:29:37;;;;;;;15.35;10.20;;;;;;;22.30;62.18;99766.06;5021738;28;20068;-72
2022/06/04 05:32:05;;;;;;;18.65;10.50;;;;;;;22.38;61.88;99760.38;5029199;28;20677;-72
2022/06/04 05:34:32;;;;;;;11.75;9.68;;;;;;;22.75;60.84;99752.59;5018514;28;20492;-72
2022/06/04 05:36:58;;;;;;;10.10;8.55;;;;;;;23.09;59.21;99760.59;5011196;28;20049;-72
2022/06/04 05:39:24;;;;;;;16.83;9.82;;;;;;;23.19;58.38;99764.63;5026796;28;20468;-72
2022/06/04 05:41:51;;;;;;;13.25;8.98;;;;;;;23.41;58.91;99766.19;5030843;28;20024;-73
2022/06/04 05:44:17;;;;;;;65.28;11.85;;;;;;;23.54;58.92;99763.66;5028689;28;20636;-71
2022/06/04 05:46:44;;;;;;;24.10;9.82;;;;;;;23.67;58.45;99766.00;5030271;28;20032;-72
2022/06/04 05:49:12;;;;;;;14.52;9.43;;;;;;;23.76;58.15;99774.09;5028793;28;20025;-72
2022/06/04 05:51:40;;;;;;;17.50;8.90;;;;;;;23.65;58.07;99772.16;5030721;28;20022;-72
2022/06/04 05:54:06;;;;;;;12.38;9.45;;;;;;;23.74;58.34;99774.53;5030879;28;20459;-72
2022/06/04 05:56:35;;;;;;;18.33;10.65;;;;;;;23.96;58.01;99775.19;5030530;28;20017;-72
2022/06/04 05:59:03;;;;;;;11.80;9.00;;;;;;;24.12;57.18;99773.84;5030779;28;20548;-72
2022/06/04 06:01:31;;;;;;;14.30;9.63;;;;;;;23.92;58.32;99768.69;5030788;28;20033;-72
2022/06/04 06:03:57;;;;;;;32.45;11.18;;;;;;;24.30;57.47;99778.63;5028441;28;20032;-72
2022/06/04 06:06:30;;;;;;;15.45;9.50;;;;;;;24.30;56.51;99785.13;5029341;28;20029;-72
2022/06/04 06:08:59;;;;;;;13.30;9.65;;;;;;;24.20;56.60;99780.34;5029747;28;20453;-73
2022/06/04 06:11:24;;;;;;;12.65;8.68;;;;;;;24.35;55.67;99775.28;5030841;28;20369;-72
2022/06/04 06:13:51;;;;;;;15.65;9.13;;;;;;;24.63;55.04;99771.34;5029444;28;20079;-72
2022/06/04 06:16:22;;;;;;;13.93;8.77;;;;;;;24.77;54.81;99773.28;5027791;28;20017;-72
2022/06/04 06:18:48;;;;;;;11.27;9.00;;;;;;;24.64;54.98;99770.09;5016156;28;20026;-72
2022/06/04 06:21:16;;;;;;;21.83;10.52;;;;;;;25.05;55.11;99770.50;5029179;28;20021;-72
2022/06/04 06:23:43;;;;;;;14.20;8.70;;;;;;;25.24;53.60;99760.44;5018149;28;20037;-72
2022/06/04 06:26:12;;;;;;;13.23;8.88;;;;;;;25.41;53.13;99758.59;5026441;28;20025;-74
2022/06/04 06:28:39;;;;;;;13.88;8.10;;;;;;;25.46;52.59;99760.13;5029650;28;20404;-73
2022/06/04 06:31:07;;;;;;;9.63;8.48;;;;;;;25.53;51.82;99754.34;5030730;28;20032;-71
2022/06/04 06:33:33;;;;;;;12.40;9.00;;;;;;;25.59;52.39;99764.09;5030319;28;20036;-70
2022/06/04 06:36:02;;;;;;;11.48;8.73;;;;;;;25.40;52.08;99765.56;5029365;28;20050;-72
2022/06/04 06:38:28;;;;;;;11.80;8.82;;;;;;;25.36;53.32;99764.78;5028587;28;20742;-72
2022/06/04 06:40:56;;;;;;;11.93;8.57;;;;;;;25.84;53.78;99759.19;5033856;28;20083;-70
2022/06/04 06:43:22;;;;;;;13.73;8.10;;;;;;;26.07;51.84;99762.09;5034016;28;20018;-71
2022/06/04 06:45:48;;;;;;;11.88;7.85;;;;;;;26.42;52.06;99753.31;5025460;28;20029;-72
2022/06/04 06:48:13;;;;;;;9.32;7.90;;;;;;;26.27;50.85;99755.66;5028756;28;20021;-71
2022/06/04 06:50:40;;;;;;;11.23;8.13;;;;;;;26.32;49.97;99762.94;5033932;28;20022;-72
2022/06/04 06:53:06;;;;;;;11.90;8.15;;;;;;;26.54;51.07;99759.66;5034095;28;20502;-71
2022/06/04 06:55:31;;;;;;;18.90;8.52;;;;;;;26.74;50.77;99757.63;5034185;28;20025;-70
2022/06/04 06:57:57;;;;;;;13.98;8.30;;;;;;;26.83;48.88;99754.16;5032842;28;20068;-71
2022/06/04 07:00:22;;;;;;;15.50;8.25;;;;;;;26.77;48.79;99753.88;5033907;28;20033;-72
2022/06/04 07:02:48;;;;;;;11.57;6.90;;;;;;;26.93;47.54;99755.25;5033488;28;20504;-71
2022/06/04 07:05:14;;;;;;;17.63;9.13;;;;;;;27.13;46.83;99746.63;5043961;28;20021;-72
2022/06/04 07:07:40;;;;;;;13.55;6.75;;;;;;;26.59;46.26;99753.44;5032410;28;20175;-71
2022/06/04 07:10:06;;;;;;;9.68;6.13;;;;;;;26.78;46.32;99749.75;5027504;28;20025;-71
2022/06/04 07:12:32;;;;;;;8.30;6.47;;;;;;;26.96;47.72;99750.66;5027318;28;20041;-73
2022/06/04 07:14:58;;;;;;;11.65;6.43;;;;;;;27.29;45.64;99745.06;5026951;28;20018;-70
2022/06/04 07:17:24;;;;;;;7.95;6.57;;;;;;;27.30;44.40;99733.13;5030107;28;20099;-71
2022/06/04 07:19:50;;;;;;;13.57;7.15;;;;;;;27.51;44.76;99731.00;5032056;28;20047;-71
2022/06/04 07:22:16;;;;;;;10.80;6.53;;;;;;;27.42;45.75;99730.81;5031228;28;20037;-70
2022/06/04 07:24:41;;;;;;;18.98;8.13;;;;;;;27.59;44.79;99731.69;5033506;28;20040;-70
2022/06/04 07:27:08;;;;;;;8.75;6.60;;;;;;;27.50;46.85;99734.34;5028452;28;20030;-69
2022/06/04 07:29:34;;;;;;;33.28;7.82;;;;;;;27.82;45.72;99727.84;5033280;28;20110;-71
2022/06/04 07:31:59;;;;;;;16.17;7.80;;;;;;;27.97;44.48;99730.34;5033559;28;20037;-73
2022/06/04 07:34:25;;;;;;;14.30;7.47;;;;;;;28.15;44.21;99722.09;5032528;28;20033;-71
2022/06/04 07:36:51;;;;;;;15.55;8.07;;;;;;;27.92;44.86;99730.91;5033052;28;20049;-70
2022/06/04 07:39:18;;;;;;;11.40;7.00;;;;;;;27.86;45.01;99722.81;5029627;28;20033;-72
2022/06/04 07:41:46;;;;;;;17.02;6.93;;;;;;;28.28;45.41;99730.00;5033005;28;20095;-72
2022/06/04 07:44:14;;;;;;;11.80;7.22;;;;;;;28.29;44.70;99725.88;5053260;28;20036;-71
2022/06/04 07:46:41;;;;;;;10.63;6.45;;;;;;;28.00;44.42;99718.78;5044304;28;20021;-71
2022/06/04 07:49:08;;;;;;;10.43;6.93;;;;;;;28.16;45.36;99717.13;5032131;28;20488;-72
2022/06/04 07:51:35;;;;;;;8.52;6.38;;;;;;;28.55;44.17;99721.06;5031847;28;20026;-72
2022/06/04 07:54:03;;;;;;;19.20;6.75;;;;;;;28.83;43.92;99721.53;5032056;28;20036;-72
2022/06/04 07:56:28;;;;;;;20.75;7.63;;;;;;;28.90;43.20;99714.75;5031406;28;20030;-71
2022/06/04 07:58:54;;;;;;;13.10;7.82;;;;;;;28.98;43.05;99716.16;5026811;28;20090;-73
2022/06/04 08:01:22;;;;;;;13.23;6.10;;;;;;;28.91;42.96;99719.25;5032704;28;20021;-71
2022/06/04 08:03:49;;;;;;;10.93;6.13;;;;;;;29.10;43.41;99711.69;5030311;28;20025;-72
2022/06/04 08:06:17;;;;;;;11.45;5.82;;;;;;;29.27;42.64;99709.50;5031422;28;20423;-72
2022/06/04 08:08:44;;;;;;;14.80;7.18;;;;;;;29.28;42.03;99713.22;5029869;28;20051;-71
2022/06/04 08:13:54;;;;;;;12.50;6.30;;;;;;;29.34;42.19;99705.59;5033208;28;20033;-71
2022/06/04 08:16:20;;;;;;;15.68;5.75;;;;;;;29.50;42.76;99703.91;5028182;28;20021;-71
2022/06/04 08:18:45;;;;;;;15.60;6.00;;;;;;;29.69;42.31;99713.59;5018391;28;20075;-71
2022/06/04 08:21:12;;;;;;;11.70;5.85;;;;;;;29.72;41.12;99709.78;5024344;28;20025;-71
2022/06/04 08:23:40;;;;;;;8.98;6.18;;;;;;;29.69;40.10;99699.97;5026668;28;20475;-70
2022/06/04 08:26:09;;;;;;;17.73;7.20;;;;;;;29.73;40.28;99704.81;5018966;28;20022;-70
2022/06/04 08:28:35;;;;;;;31.57;7.60;;;;;;;29.73;40.15;99707.69;5032555;28;20028;-70
2022/06/04 08:31:05;;;;;;;21.65;6.55;;;;;;;29.78;41.39;99689.84;5029226;28;20460;-70
2022/06/04 08:33:31;;;;;;;14.52;5.82;;;;;;;29.88;40.47;99696.50;5030128;28;20553;-71
2022/06/04 08:35:57;;;;;;;10.88;6.03;;;;;;;29.88;40.39;99697.31;5029308;28;20065;-70
2022/06/04 08:38:23;;;;;;;14.45;5.65;;;;;;;29.59;39.35;99685.94;5023045;28;20808;-70
2022/06/04 08:40:56;;;;;;;5.80;4.72;;;;;;;30.00;40.71;99694.88;5023490;28;20033;-72
2022/06/04 08:43:51;;;;;;;18.10;5.80;;;;;;;30.00;41.21;99687.00;5029917;28;20484;-72
2022/06/04 08:46:32;;;;;;;16.98;6.28;;;;;;;29.79;39.30;99689.34;5013669;28;20105;-70
2022/06/04 08:49:03;;;;;;;13.05;5.35;;;;;;;29.80;39.92;99684.41;5023478;28;20509;-71
2022/06/04 08:51:29;;;;;;;14.52;6.15;;;;;;;29.67;40.12;99675.78;5028729;28;20036;-70
2022/06/04 08:53:57;;;;;;;16.98;5.47;;;;;;;30.06;39.93;99672.84;5028089;28;20026;-71
2022/06/04 08:59:35;;;;;;;6.50;4.85;;;;;;;30.26;38.97;99669.66;5023569;28;20048;-70
2022/06/04 09:02:04;;;;;;;14.73;6.05;;;;;;;30.03;38.40;99679.53;5025003;28;20033;-70
2022/06/04 09:04:52;;;;;;;12.10;6.22;;;;;;;29.96;38.19;99669.84;5021097;28;20030;-70
2022/06/04 09:07:27;;;;;;;9.30;6.10;;;;;;;30.36;38.06;99665.59;5012830;28;20049;-69
2022/06/04 09:10:21;;;;;;;11.02;5.20;;;;;;;30.55;37.09;99668.63;5031623;28;20156;-69
2022/06/04 09:12:50;;;;;;;11.75;5.38;;;;;;;30.74;37.30;99663.00;5027695;28;20053;-69
2022/06/04 09:15:31;;;;;;;8.95;4.85;;;;;;;30.84;36.63;99658.91;5026858;28;20037;-69
2022/06/04 09:18:01;;;;;;;12.18;5.35;;;;;;;31.02;36.38;99657.41;5018279;28;20028;-71
2022/06/04 09:20:40;;;;;;;13.35;4.80;;;;;;;31.22;35.32;99660.72;5025288;28;20048;-69
2022/06/04 09:23:19;;;;;;;11.00;4.70;;;;;;;31.16;37.20;99661.81;5020360;28;20030;-71
2022/06/04 09:25:59;;;;;;;13.38;4.57;;;;;;;31.21;36.04;99647.53;5017033;28;20025;-70
2022/06/04 09:28:41;;;;;;;17.40;5.45;;;;;;;31.20;35.21;99653.81;5026385;28;20121;-70
2022/06/04 09:31:18;;;;;;;8.07;4.45;;;;;;;31.19;37.14;99655.88;5027294;28;20132;-70
2022/06/04 09:33:53;;;;;;;15.20;6.15;;;;;;;31.26;36.99;99643.25;5027989;28;20037;-69
2022/06/04 09:36:22;;;;;;;9.63;5.10;;;;;;;31.47;36.67;99632.91;5027637;28;20064;-71
2022/06/04 09:38:53;;;;;;;17.45;6.00;;;;;;;31.52;36.03;99635.19;5030036;28;20477;-70
2022/06/04 09:41:21;;;;;;;10.90;4.93;;;;;;;31.77;34.63;99630.41;5015625;28;20044;-70
2022/06/04 09:44:04;;;;;;;12.45;5.40;;;;;;;30.82;32.04;99635.47;5031489;28;20029;-71
2022/06/04 09:46:29;;;;;;;9.00;4.22;;;;;;;31.50;33.18;99625.38;5025196;28;20026;-70
2022/06/04 09:48:55;;;;;;;8.23;4.30;;;;;;;31.74;32.59;99627.69;5029882;28;20404;-70
2022/06/04 09:51:25;;;;;;;7.80;3.95;;;;;;;31.76;32.33;99620.13;5025650;28;20022;-70
2022/06/04 09:54:03;;;;;;;7.68;4.35;;;;;;;31.81;34.09;99626.59;5029789;28;20091;-70
2022/06/04 09:56:41;;;;;;;7.18;4.60;;;;;;;31.69;32.66;99613.88;5026659;28;20033;-70
2022/06/04 09:59:30;;;;;;;6.05;3.85;;;;;;;31.91;31.83;99623.22;5022446;28;20043;-71
2022/06/04 10:02:14;;;;;;;9.80;5.28;;;;;;;31.33;32.33;99616.97;5009297;28;20033;-71
2022/06/04 10:04:44;;;;;;;7.95;5.07;;;;;;;31.56;32.99;99609.03;5011022;28;20409;-71
2022/06/04 10:07:14;;;;;;;8.73;4.57;;;;;;;31.90;33.24;99607.16;5027411;28;20044;-71
2022/06/04 10:09:56;;;;;;;12.63;4.70;;;;;;;32.09;33.21;99607.19;5030291;28;20033;-71
2022/06/04 10:15:55;;;;;;;8.38;4.18;;;;;;;32.58;32.82;99590.13;5026722;28;20048;-73
2022/06/04 10:18:28;;;;;;;12.20;4.53;;;;;;;32.69;32.53;99587.53;5028510;28;20029;-72
2022/06/04 10:21:07;;;;;;;14.00;5.82;;;;;;;33.05;32.24;99590.78;5028218;28;20021;-72
2022/06/04 10:23:45;;;;;;;8.68;5.47;;;;;;;33.14;31.44;99581.28;5012665;28;20033;-72
2022/06/04 10:26:32;;;;;;;8.90;4.97;;;;;;;33.10;31.06;99584.34;5022749;28;20038;-71
2022/06/04 10:29:19;;;;;;;8.70;4.47;;;;;;;32.68;31.94;99585.09;5030674;28;20031;-73
2022/06/04 10:32:23;;;;;;;14.27;4.70;;;;;;;32.82;32.53;99574.94;5028949;28;20029;-72
2022/06/04 10:35:19;;;;;;;7.15;4.60;;;;;;;32.69;31.41;99580.91;5022069;28;20104;-73
2022/06/04 10:38:01;;;;;;;16.20;4.78;;;;;;;32.82;31.43;99577.84;5029009;28;20061;-72
2022/06/04 10:41:03;;;;;;;12.10;4.70;;;;;;;32.20;32.05;99574.88;5026347;28;20040;-70
2022/06/04 10:43:41;;;;;;;13.88;4.35;;;;;;;32.38;31.47;99567.50;5031027;28;20075;-70
2022/06/04 10:46:32;;;;;;;12.75;4.43;;;;;;;32.48;31.05;99569.09;5030506;28;20029;-72
2022/06/04 10:49:12;;;;;;;14.80;4.85;;;;;;;32.58;30.20;99561.19;5028572;28;20029;-72
2022/06/04 10:51:47;;;;;;;4.80;4.00;;;;;;;32.69;29.99;99566.44;5019615;28;20029;-74
2022/06/04 10:54:39;;;;;;;9.25;4.28;;;;;;;32.60;29.39;99559.41;5021912;28;20034;-71
2022/06/04 10:57:27;;;;;;;12.25;4.32;;;;;;;32.48;30.54;99551.72;5021803;28;20032;-71
2022/06/04 11:00:00;;;;;;;6.72;4.20;;;;;;;32.80;30.43;99554.38;5027437;28;20404;-71
2022/06/04 11:02:46;;;;;;;7.50;4.30;;;;;;;32.86;30.06;99544.53;5026890;28;20570;-72
2022/06/04 11:05:39;;;;;;;9.85;4.53;;;;;;;32.78;29.67;99540.38;5015541;28;20128;-71
2022/06/04 11:08:09;;;;;;;9.00;4.43;;;;;;;32.79;30.97;99536.19;5030668;28;20040;-71
2022/06/04 11:10:43;;;;;;;8.15;4.65;;;;;;;32.59;31.83;99539.63;5030047;28;20033;-71
2022/06/04 11:13:17;;;;;;;13.65;5.22;;;;;;;32.46;32.48;99531.13;5033141;28;20044;-71
2022/06/04 11:15:58;;;;;;;10.40;4.45;;;;;;;32.54;31.75;99532.41;5032245;28;20022;-71
2022/06/04 11:18:30;;;;;;;10.68;5.20;;;;;;;32.60;31.01;99518.06;5031556;28;20504;-71
2022/06/04 11:21:09;;;;;;;12.75;4.70;;;;;;;32.70;31.82;99510.16;5030898;28;20021;-71
2022/06/04 11:23:47;;;;;;;4.78;3.85;;;;;;;32.86;31.84;99511.84;5031951;28;20034;-73
2022/06/04 11:26:38;;;;;;;7.10;4.05;;;;;;;32.95;31.16;99502.38;5024949;28;20122;-72
2022/06/04 11:29:05;;;;;;;6.47;4.10;;;;;;;33.02;31.05;99502.00;5032572;28;20033;-72
2022/06/04 11:31:56;;;;;;;11.77;4.15;;;;;;;33.14;30.67;99503.84;5027894;28;20030;-71
2022/06/04 11:34:24;;;;;;;10.52;4.93;;;;;;;33.18;30.24;99495.81;5023742;28;20036;-72
2022/06/04 11:36:56;;;;;;;12.07;4.35;;;;;;;33.41;30.18;99495.47;5031460;28;20049;-71
2022/06/04 11:39:44;;;;;;;5.45;4.40;;;;;;;33.41;29.15;99489.69;5026559;28;20037;-71
2022/06/04 11:42:37;;;;;;;9.75;5.10;;;;;;;33.31;29.87;99486.06;5011124;28;20049;-72
2022/06/04 11:45:24;;;;;;;7.72;4.60;;;;;;;33.26;30.23;99480.94;5030423;28;20474;-72
2022/06/04 11:47:58;;;;;;;12.50;4.65;;;;;;;33.13;30.10;99481.97;5032272;28;20048;-71
2022/06/04 11:50:29;;;;;;;7.03;4.53;;;;;;;33.02;29.47;99478.81;5026387;28;20536;-71
2022/06/04 11:53:26;;;;;;;7.43;4.13;;;;;;;33.49;29.52;99478.56;5030260;28;20068;-70
2022/06/04 11:56:04;;;;;;;10.55;4.28;;;;;;;33.73;28.55;99478.53;5029967;28;20432;-71
2022/06/04 11:59:07;;;;;;;6.18;4.00;;;;;;;33.44;28.99;99469.22;5032015;28;20028;-72